sensor_id;sensor_type;location;lat;lon;timestamp;pressure;altitude;pressure_sealevel;temperature;humidity
10135;BME280;5107;48.850;8.924;2022-11-20T00:00:50;96313.69;;;5.64;90.48
10135;BME280;5107;48.850;8.924;2022-11-20T00:03:18;96313.69;;;5.64;90.56
10135;BME280;5107;48.850;8.924;2022-11-20T00:05:45;96302.44;;;5.63;89.66
10135;BME280;5107;48.850;8.924;2022-11-20T00:08:12;96310.09;;;5.65;90.03
10135;BME280;5107;48.850;8.924;2022-11-20T00:10:40;96305.72;;;5.65;89.76
10135;BME280;5107;48.850;8.924;2022-11-20T00:13:07;96305.44;;;5.68;89.32
10135;BME280;5107;48.850;8.924;2022-11-20T00:15:35;96309.66;;;5.69;88.82
10135;BME280;5107;48.850;8.924;2022-11-20T00:18:02;96305.25;;;5.70;88.09
10135;BME280;5107;48.850;8.924;2022-11-20T00:20:30;96310.19;;;5.73;87.84
10135;BME280;5107;48.850;8.924;2022-11-20T00:22:57;96312.94;;;5.71;88.29
10135;BME280;5107;48.850;8.924;2022-11-20T00:25:24;96311.63;;;5.67;88.92
10135;BME280;5107;48.850;8.924;2022-11-20T00:27:51;96310.94;;;5.65;88.18
10135;BME280;5107;48.850;8.924;2022-11-20T00:30:19;96313.84;;;5.62;88.10
10135;BME280;5107;48.850;8.924;2022-11-20T00:32:46;96303.53;;;5.61;88.32
10135;BME280;5107;48.850;8.924;2022-11-20T00:35:13;96301.25;;;5.58;88.49
10135;BME280;5107;48.850;8.924;2022-11-20T00:37:41;96298.63;;;5.58;87.53
10135;BME280;5107;48.850;8.924;2022-11-20T00:40:10;96309.06;;;5.58;87.50
10135;BME280;5107;48.850;8.924;2022-11-20T00:42:37;96308.41;;;5.56;87.98
10135;BME280;5107;48.850;8.924;2022-11-20T00:45:05;96300.56;;;5.56;87.26
10135;BME280;5107;48.850;8.924;2022-11-20T00:47:32;96300.84;;;5.53;87.12
10135;BME280;5107;48.850;8.924;2022-11-20T00:49:59;96308.84;;;5.51;87.31
10135;BME280;5107;48.850;8.924;2022-11-20T00:52:26;96307.50;;;5.47;87.67
10135;BME280;5107;48.850;8.924;2022-11-20T00:54:55;96311.53;;;5.42;87.89
10135;BME280;5107;48.850;8.924;2022-11-20T00:57:22;96317.84;;;5.39;88.09
10135;BME280;5107;48.850;8.924;2022-11-20T00:59:49;96313.09;;;5.34;88.30
10135;BME280;5107;48.850;8.924;2022-11-20T01:02:16;96320.91;;;5.34;88.06
10135;BME280;5107;48.850;8.924;2022-11-20T01:04:43;96326.94;;;5.35;88.19
10135;BME280;5107;48.850;8.924;2022-11-20T01:07:10;96317.47;;;5.34;87.40
10135;BME280;5107;48.850;8.924;2022-11-20T01:09:37;96316.66;;;5.33;87.83
10135;BME280;5107;48.850;8.924;2022-11-20T01:12:06;96315.16;;;5.31;87.19
10135;BME280;5107;48.850;8.924;2022-11-20T01:14:33;96322.31;;;5.29;87.45
10135;BME280;5107;48.850;8.924;2022-11-20T01:17:00;96313.81;;;5.27;88.31
10135;BME280;5107;48.850;8.924;2022-11-20T01:19:27;96314.09;;;5.24;87.53
10135;BME280;5107;48.850;8.924;2022-11-20T01:21:54;96320.28;;;5.23;88.16
10135;BME280;5107;48.850;8.924;2022-11-20T01:24:22;96330.19;;;5.19;87.63
10135;BME280;5107;48.850;8.924;2022-11-20T01:26:50;96327.19;;;5.14;87.83
10135;BME280;5107;48.850;8.924;2022-11-20T01:29:21;96327.66;;;5.10;88.49
10135;BME280;5107;48.850;8.924;2022-11-20T01:31:49;96327.25;;;5.05;88.74
10135;BME280;5107;48.850;8.924;2022-11-20T01:34:19;96329.63;;;4.98;88.53
10135;BME280;5107;48.850;8.924;2022-11-20T01:36:48;96332.00;;;4.91;89.26
10135;BME280;5107;48.850;8.924;2022-11-20T01:39:17;96327.06;;;4.88;88.90
10135;BME280;5107;48.850;8.924;2022-11-20T01:41:45;96325.41;;;4.87;89.03
10135;BME280;5107;48.850;8.924;2022-11-20T01:44:52;96320.50;;;4.84;89.69
10135;BME280;5107;48.850;8.924;2022-11-20T01:47:29;96318.44;;;4.78;89.40
10135;BME280;5107;48.850;8.924;2022-11-20T01:50:01;96316.81;;;4.77;89.74
10135;BME280;5107;48.850;8.924;2022-11-20T01:52:36;96317.25;;;4.73;89.53
10135;BME280;5107;48.850;8.924;2022-11-20T01:55:08;96322.72;;;4.70;89.91
10135;BME280;5107;48.850;8.924;2022-11-20T01:57:36;96325.78;;;4.65;89.81
10135;BME280;5107;48.850;8.924;2022-11-20T02:00:09;96319.38;;;4.60;89.93
10135;BME280;5107;48.850;8.924;2022-11-20T02:02:43;96315.38;;;4.55;89.95
10135;BME280;5107;48.850;8.924;2022-11-20T02:05:18;96323.34;;;4.54;89.90
10135;BME280;5107;48.850;8.924;2022-11-20T02:07:49;96319.63;;;4.56;89.98
10135;BME280;5107;48.850;8.924;2022-11-20T02:10:17;96325.81;;;4.55;89.78
10135;BME280;5107;48.850;8.924;2022-11-20T02:12:44;96323.22;;;4.55;89.20
10135;BME280;5107;48.850;8.924;2022-11-20T02:15:32;96315.25;;;4.57;89.57
10135;BME280;5107;48.850;8.924;2022-11-20T02:18:00;96315.94;;;4.59;90.09
10135;BME280;5107;48.850;8.924;2022-11-20T02:20:28;96315.63;;;4.62;89.11
10135;BME280;5107;48.850;8.924;2022-11-20T02:22:59;96319.75;;;4.65;89.42
10135;BME280;5107;48.850;8.924;2022-11-20T02:25:32;96321.41;;;4.66;89.13
10135;BME280;5107;48.850;8.924;2022-11-20T02:28:00;96327.28;;;4.68;89.85
10135;BME280;5107;48.850;8.924;2022-11-20T02:30:27;96325.66;;;4.67;89.26
10135;BME280;5107;48.850;8.924;2022-11-20T02:32:54;96323.56;;;4.70;89.23
10135;BME280;5107;48.850;8.924;2022-11-20T02:35:43;96323.88;;;4.67;89.65
10135;BME280;5107;48.850;8.924;2022-11-20T02:38:11;96326.31;;;4.69;89.58
10135;BME280;5107;48.850;8.924;2022-11-20T02:40:39;96324.69;;;4.68;88.90
10135;BME280;5107;48.850;8.924;2022-11-20T02:43:07;96329.22;;;4.66;89.80
10135;BME280;5107;48.850;8.924;2022-11-20T02:45:35;96321.53;;;4.64;89.23
10135;BME280;5107;48.850;8.924;2022-11-20T02:48:02;96329.22;;;4.66;90.13
10135;BME280;5107;48.850;8.924;2022-11-20T02:50:29;96329.34;;;4.64;90.63
10135;BME280;5107;48.850;8.924;2022-11-20T02:52:56;96322.78;;;4.60;89.79
10135;BME280;5107;48.850;8.924;2022-11-20T02:55:23;96320.31;;;4.58;90.88
10135;BME280;5107;48.850;8.924;2022-11-20T02:57:52;96317.84;;;4.57;90.12
10135;BME280;5107;48.850;8.924;2022-11-20T03:00:19;96323.06;;;4.57;90.74
10135;BME280;5107;48.850;8.924;2022-11-20T03:02:46;96323.06;;;4.57;90.91
10135;BME280;5107;48.850;8.924;2022-11-20T03:05:13;96322.09;;;4.58;90.55
10135;BME280;5107;48.850;8.924;2022-11-20T03:07:40;96317.84;;;4.57;90.50
10135;BME280;5107;48.850;8.924;2022-11-20T03:10:08;96313.06;;;4.52;91.41
10135;BME280;5107;48.850;8.924;2022-11-20T03:12:35;96309.81;;;4.50;90.59
10135;BME280;5107;48.850;8.924;2022-11-20T03:15:05;96315.00;;;4.50;90.98
10135;BME280;5107;48.850;8.924;2022-11-20T03:17:32;96318.56;;;4.49;90.40
10135;BME280;5107;48.850;8.924;2022-11-20T03:20:00;96307.22;;;4.41;90.42
10135;BME280;5107;48.850;8.924;2022-11-20T03:22:29;96306.41;;;4.31;91.30
10135;BME280;5107;48.850;8.924;2022-11-20T03:24:56;96300.97;;;4.24;91.52
10135;BME280;5107;48.850;8.924;2022-11-20T03:27:23;96302.31;;;4.18;91.00
10135;BME280;5107;48.850;8.924;2022-11-20T03:29:50;96299.19;;;4.15;91.80
10135;BME280;5107;48.850;8.924;2022-11-20T03:32:19;96310.19;;;4.09;92.41
10135;BME280;5107;48.850;8.924;2022-11-20T03:34:46;96302.91;;;4.03;92.36
10135;BME280;5107;48.850;8.924;2022-11-20T03:37:13;96311.41;;;3.95;92.76
10135;BME280;5107;48.850;8.924;2022-11-20T03:39:40;96304.88;;;3.91;93.47
10135;BME280;5107;48.850;8.924;2022-11-20T03:42:08;96300.34;;;3.93;93.72
10135;BME280;5107;48.850;8.924;2022-11-20T03:44:55;96302.25;;;4.01;93.38
10135;BME280;5107;48.850;8.924;2022-11-20T03:47:23;96307.28;;;4.02;93.53
10135;BME280;5107;48.850;8.924;2022-11-20T03:49:50;96296.88;;;4.02;93.93
10135;BME280;5107;48.850;8.924;2022-11-20T03:52:17;96294.44;;;4.01;93.87
10135;BME280;5107;48.850;8.924;2022-11-20T03:54:44;96297.03;;;4.01;93.90
10135;BME280;5107;48.850;8.924;2022-11-20T03:57:11;96300.16;;;4.04;94.80
10135;BME280;5107;48.850;8.924;2022-11-20T03:59:38;96295.91;;;4.13;94.23
10135;BME280;5107;48.850;8.924;2022-11-20T04:02:05;96303.97;;;4.19;94.27
10135;BME280;5107;48.850;8.924;2022-11-20T04:04:34;96296.28;;;4.28;93.65
10135;BME280;5107;48.850;8.924;2022-11-20T04:07:01;96293.53;;;4.29;93.40
10135;BME280;5107;48.850;8.924;2022-11-20T04:09:28;96295.16;;;4.40;93.01
10135;BME280;5107;48.850;8.924;2022-11-20T04:11:55;96295.03;;;4.41;93.65
10135;BME280;5107;48.850;8.924;2022-11-20T04:14:22;96295.72;;;4.43;93.56
10135;BME280;5107;48.850;8.924;2022-11-20T04:16:49;96299.94;;;4.44;93.40
10135;BME280;5107;48.850;8.924;2022-11-20T04:19:17;96296.22;;;4.47;93.21
10135;BME280;5107;48.850;8.924;2022-11-20T04:21:45;96295.41;;;4.46;93.71
10135;BME280;5107;48.850;8.924;2022-11-20T04:24:12;96291.72;;;4.49;94.33
10135;BME280;5107;48.850;8.924;2022-11-20T04:26:40;96285.53;;;4.50;94.20
10135;BME280;5107;48.850;8.924;2022-11-20T04:29:11;96288.78;;;4.52;94.37
10135;BME280;5107;48.850;8.924;2022-11-20T04:31:38;96289.06;;;4.58;94.36
10135;BME280;5107;48.850;8.924;2022-11-20T04:34:06;96290.75;;;4.77;93.84
10135;BME280;5107;48.850;8.924;2022-11-20T04:36:34;96278.31;;;4.99;92.63
10135;BME280;5107;48.850;8.924;2022-11-20T04:39:05;96280.06;;;5.25;90.72
10135;BME280;5107;48.850;8.924;2022-11-20T04:41:34;96284.91;;;5.38;89.67
10135;BME280;5107;48.850;8.924;2022-11-20T04:44:04;96282.50;;;5.45;89.50
10135;BME280;5107;48.850;8.924;2022-11-20T04:46:33;96278.50;;;5.50;88.40
10135;BME280;5107;48.850;8.924;2022-11-20T04:49:01;96289.03;;;5.58;87.70
10135;BME280;5107;48.850;8.924;2022-11-20T04:51:28;96278.88;;;5.55;87.92
10135;BME280;5107;48.850;8.924;2022-11-20T04:53:55;96288.19;;;5.58;87.96
10135;BME280;5107;48.850;8.924;2022-11-20T04:56:24;96285.59;;;5.58;88.30
10135;BME280;5107;48.850;8.924;2022-11-20T04:58:51;96285.44;;;5.59;88.23
10135;BME280;5107;48.850;8.924;2022-11-20T05:01:20;96290.50;;;5.61;87.61
10135;BME280;5107;48.850;8.924;2022-11-20T05:03:48;96285.44;;;5.59;88.86
10135;BME280;5107;48.850;8.924;2022-11-20T05:06:19;96279.97;;;5.53;88.85
10135;BME280;5107;48.850;8.924;2022-11-20T05:08:46;96281.94;;;5.51;88.54
10135;BME280;5107;48.850;8.924;2022-11-20T05:11:16;96279.19;;;5.52;89.17
10135;BME280;5107;48.850;8.924;2022-11-20T05:13:44;96279.00;;;5.54;88.34
10135;BME280;5107;48.850;8.924;2022-11-20T05:16:14;96285.72;;;5.56;88.17
10135;BME280;5107;48.850;8.924;2022-11-20T05:18:42;96278.72;;;5.57;87.74
10135;BME280;5107;48.850;8.924;2022-11-20T05:21:10;96278.03;;;5.55;88.31
10135;BME280;5107;48.850;8.924;2022-11-20T05:23:38;96285.38;;;5.51;88.60
10135;BME280;5107;48.850;8.924;2022-11-20T05:26:07;96280.59;;;5.47;88.39
10135;BME280;5107;48.850;8.924;2022-11-20T05:28:34;96283.34;;;5.45;88.25
10135;BME280;5107;48.850;8.924;2022-11-20T05:31:07;96280.72;;;5.45;88.91
10135;BME280;5107;48.850;8.924;2022-11-20T05:33:35;96293.78;;;5.45;88.71
10135;BME280;5107;48.850;8.924;2022-11-20T05:36:04;96289.38;;;5.46;89.00
10135;BME280;5107;48.850;8.924;2022-11-20T05:38:31;96288.41;;;5.47;88.53
10135;BME280;5107;48.850;8.924;2022-11-20T05:41:04;96283.34;;;5.45;89.23
10135;BME280;5107;48.850;8.924;2022-11-20T05:43:33;96284.97;;;5.46;89.85
10135;BME280;5107;48.850;8.924;2022-11-20T05:46:00;96286.91;;;5.44;89.98
10135;BME280;5107;48.850;8.924;2022-11-20T05:48:29;96278.44;;;5.42;89.35
10135;BME280;5107;48.850;8.924;2022-11-20T05:50:57;96282.00;;;5.41;89.90
10135;BME280;5107;48.850;8.924;2022-11-20T05:53:25;96282.69;;;5.43;89.53
10135;BME280;5107;48.850;8.924;2022-11-20T05:55:59;96282.00;;;5.41;90.04
10135;BME280;5107;48.850;8.924;2022-11-20T05:58:26;96288.06;;;5.42;89.74
10135;BME280;5107;48.850;8.924;2022-11-20T06:00:54;96281.69;;;5.44;88.84
10135;BME280;5107;48.850;8.924;2022-11-20T06:03:21;96275.69;;;5.44;89.61
10135;BME280;5107;48.850;8.924;2022-11-20T06:05:49;96273.88;;;5.44;89.12
10135;BME280;5107;48.850;8.924;2022-11-20T06:08:16;96279.09;;;5.44;89.30
10135;BME280;5107;48.850;8.924;2022-11-20T06:10:43;96284.31;;;5.44;89.83
10135;BME280;5107;48.850;8.924;2022-11-20T06:13:10;96282.50;;;5.45;89.37
10135;BME280;5107;48.850;8.924;2022-11-20T06:15:37;96271.78;;;5.48;89.30
10135;BME280;5107;48.850;8.924;2022-11-20T06:18:04;96277.16;;;5.46;89.43
10135;BME280;5107;48.850;8.924;2022-11-20T06:20:31;96277.28;;;5.45;89.65
10135;BME280;5107;48.850;8.924;2022-11-20T06:23:00;96267.47;;;5.39;89.77
10135;BME280;5107;48.850;8.924;2022-11-20T06:25:27;96271.34;;;5.34;89.65
10135;BME280;5107;48.850;8.924;2022-11-20T06:27:54;96275.22;;;5.30;90.31
10135;BME280;5107;48.850;8.924;2022-11-20T06:30:21;96270.97;;;5.29;90.05
10135;BME280;5107;48.850;8.924;2022-11-20T06:32:48;96271.94;;;5.28;89.31
10135;BME280;5107;48.850;8.924;2022-11-20T06:35:15;96277.13;;;5.28;90.22
10135;BME280;5107;48.850;8.924;2022-11-20T06:37:42;96275.50;;;5.27;89.85
10135;BME280;5107;48.850;8.924;2022-11-20T06:40:12;96274.03;;;5.25;90.87
10135;BME280;5107;48.850;8.924;2022-11-20T06:42:39;96272.38;;;5.24;90.69
10135;BME280;5107;48.850;8.924;2022-11-20T06:45:08;96274.03;;;5.25;90.08
10135;BME280;5107;48.850;8.924;2022-11-20T06:47:35;96279.59;;;5.30;90.03
10135;BME280;5107;48.850;8.924;2022-11-20T06:50:02;96281.25;;;5.31;90.06
10135;BME280;5107;48.850;8.924;2022-11-20T06:52:30;96287.44;;;5.30;90.71
10135;BME280;5107;48.850;8.924;2022-11-20T06:54:57;96283.03;;;5.30;90.56
10135;BME280;5107;48.850;8.924;2022-11-20T06:57:25;96278.66;;;5.31;90.54
10135;BME280;5107;48.850;8.924;2022-11-20T06:59:52;96282.91;;;5.32;90.77
10135;BME280;5107;48.850;8.924;2022-11-20T07:02:19;96288.09;;;5.32;90.17
10135;BME280;5107;48.850;8.924;2022-11-20T07:04:46;96285.22;;;5.35;89.85
10135;BME280;5107;48.850;8.924;2022-11-20T07:07:13;96284.75;;;5.40;89.73
10135;BME280;5107;48.850;8.924;2022-11-20T07:09:40;96283.50;;;5.44;89.67
10135;BME280;5107;48.850;8.924;2022-11-20T07:12:07;96284.16;;;5.46;89.15
10135;BME280;5107;48.850;8.924;2022-11-20T07:14:36;96290.88;;;5.48;89.67
10135;BME280;5107;48.850;8.924;2022-11-20T07:17:03;96297.06;;;5.47;89.87
10135;BME280;5107;48.850;8.924;2022-11-20T07:19:30;96295.13;;;5.49;89.45
10135;BME280;5107;48.850;8.924;2022-11-20T07:21:57;96296.63;;;5.52;89.83
10135;BME280;5107;48.850;8.924;2022-11-20T07:24:24;96300.84;;;5.53;90.30
10135;BME280;5107;48.850;8.924;2022-11-20T07:26:51;96303.47;;;5.53;90.83
10135;BME280;5107;48.850;8.924;2022-11-20T07:29:18;96307.72;;;5.54;90.54
10135;BME280;5107;48.850;8.924;2022-11-20T07:31:46;96304.00;;;5.56;89.80
10135;BME280;5107;48.850;8.924;2022-11-20T07:34:13;96308.94;;;5.59;89.74
10135;BME280;5107;48.850;8.924;2022-11-20T07:36:40;96313.19;;;5.60;90.00
10135;BME280;5107;48.850;8.924;2022-11-20T07:39:07;96313.69;;;5.64;89.30
10135;BME280;5107;48.850;8.924;2022-11-20T07:41:35;96305.72;;;5.65;89.92
10135;BME280;5107;48.850;8.924;2022-11-20T07:44:02;96313.53;;;5.65;89.49
10135;BME280;5107;48.850;8.924;2022-11-20T07:46:29;96311.97;;;5.72;88.83
10135;BME280;5107;48.850;8.924;2022-11-20T07:48:58;96314.72;;;5.71;89.77
10135;BME280;5107;48.850;8.924;2022-11-20T07:51:25;96315.41;;;5.73;88.89
10135;BME280;5107;48.850;8.924;2022-11-20T07:53:53;96314.16;;;5.77;88.53
10135;BME280;5107;48.850;8.924;2022-11-20T07:56:20;96326.59;;;5.83;87.63
10135;BME280;5107;48.850;8.924;2022-11-20T07:58:47;96322.06;;;5.85;88.13
10135;BME280;5107;48.850;8.924;2022-11-20T08:01:14;96330.53;;;5.87;86.95
10135;BME280;5107;48.850;8.924;2022-11-20T08:03:41;96320.66;;;5.91;85.75
10135;BME280;5107;48.850;8.924;2022-11-20T08:06:09;96324.91;;;5.92;86.91
10135;BME280;5107;48.850;8.924;2022-11-20T08:08:36;96325.59;;;5.94;87.02
10135;BME280;5107;48.850;8.924;2022-11-20T08:11:05;96327.50;;;5.92;86.80
10135;BME280;5107;48.850;8.924;2022-11-20T08:13:49;96332.75;;;5.92;86.60
10135;BME280;5107;48.850;8.924;2022-11-20T08:16:34;96334.66;;;5.90;87.35
10135;BME280;5107;48.850;8.924;2022-11-20T08:19:01;96338.25;;;5.89;86.78
10135;BME280;5107;48.850;8.924;2022-11-20T08:21:30;96336.47;;;5.89;86.09
10135;BME280;5107;48.850;8.924;2022-11-20T08:23:58;96340.84;;;5.89;86.79
10135;BME280;5107;48.850;8.924;2022-11-20T08:26:25;96326.97;;;5.88;86.73
10135;BME280;5107;48.850;8.924;2022-11-20T08:28:53;96322.59;;;5.89;87.21
10135;BME280;5107;48.850;8.924;2022-11-20T08:31:21;96327.81;;;5.89;86.81
10135;BME280;5107;48.850;8.924;2022-11-20T08:33:49;96333.69;;;5.91;87.42
10135;BME280;5107;48.850;8.924;2022-11-20T08:36:17;96334.38;;;5.93;87.25
10135;BME280;5107;48.850;8.924;2022-11-20T08:38:48;96343.53;;;5.97;88.21
10135;BME280;5107;48.850;8.924;2022-11-20T08:41:16;96340.09;;;5.96;87.74
10135;BME280;5107;48.850;8.924;2022-11-20T08:43:57;96341.75;;;5.97;87.96
10135;BME280;5107;48.850;8.924;2022-11-20T08:46:34;96352.03;;;5.99;89.46
10135;BME280;5107;48.850;8.924;2022-11-20T08:49:02;96349.72;;;5.96;88.48
10135;BME280;5107;48.850;8.924;2022-11-20T08:51:30;96360.84;;;5.98;89.49
10135;BME280;5107;48.850;8.924;2022-11-20T08:53:58;96362.50;;;5.99;90.20
10135;BME280;5107;48.850;8.924;2022-11-20T08:56:26;96368.69;;;5.98;90.57
10135;BME280;5107;48.850;8.924;2022-11-20T08:58:53;96361.47;;;5.92;90.63
10135;BME280;5107;48.850;8.924;2022-11-20T09:01:21;96355.56;;;5.90;91.59
10135;BME280;5107;48.850;8.924;2022-11-20T09:03:49;96359.94;;;5.89;91.68
10135;BME280;5107;48.850;8.924;2022-11-20T09:06:16;96358.59;;;5.85;91.70
10135;BME280;5107;48.850;8.924;2022-11-20T09:08:44;96361.34;;;5.84;92.38
10135;BME280;5107;48.850;8.924;2022-11-20T09:11:12;96358.06;;;5.82;92.71
10135;BME280;5107;48.850;8.924;2022-11-20T09:13:39;96362.47;;;5.81;92.67
10135;BME280;5107;48.850;8.924;2022-11-20T09:16:08;96371.94;;;5.82;93.26
10135;BME280;5107;48.850;8.924;2022-11-20T09:18:36;96369.31;;;5.82;93.05
10135;BME280;5107;48.850;8.924;2022-11-20T09:21:06;96366.84;;;5.81;92.55
10135;BME280;5107;48.850;8.924;2022-11-20T09:23:37;96370.81;;;5.85;92.86
10135;BME280;5107;48.850;8.924;2022-11-20T09:26:06;96367.53;;;5.83;92.87
10135;BME280;5107;48.850;8.924;2022-11-20T09:28:35;96374.41;;;5.84;92.26
10135;BME280;5107;48.850;8.924;2022-11-20T09:31:05;96380.59;;;5.83;92.37
10135;BME280;5107;48.850;8.924;2022-11-20T09:33:32;96374.25;;;5.85;93.18
10135;BME280;5107;48.850;8.924;2022-11-20T09:36:00;96380.31;;;5.86;93.65
10135;BME280;5107;48.850;8.924;2022-11-20T09:38:27;96384.13;;;5.91;93.86
10135;BME280;5107;48.850;8.924;2022-11-20T09:40:58;96383.16;;;5.92;94.36
10135;BME280;5107;48.850;8.924;2022-11-20T09:43:49;96381.75;;;5.98;93.84
10135;BME280;5107;48.850;8.924;2022-11-20T09:46:27;96389.13;;;6.02;93.44
10135;BME280;5107;48.850;8.924;2022-11-20T09:49:19;96382.63;;;6.06;93.79
10135;BME280;5107;48.850;8.924;2022-11-20T09:51:58;96387.72;;;6.08;93.65
10135;BME280;5107;48.850;8.924;2022-11-20T09:54:30;96387.72;;;6.08;93.41
10135;BME280;5107;48.850;8.924;2022-11-20T09:57:01;96386.75;;;6.09;93.17
10135;BME280;5107;48.850;8.924;2022-11-20T09:59:36;96388.06;;;6.13;93.44
10135;BME280;5107;48.850;8.924;2022-11-20T10:02:25;96396.03;;;6.12;93.86
10135;BME280;5107;48.850;8.924;2022-11-20T10:05:00;96401.06;;;6.05;93.28
10135;BME280;5107;48.850;8.924;2022-11-20T10:07:38;96401.94;;;5.96;94.22
10135;BME280;5107;48.850;8.924;2022-11-20T10:10:15;96401.94;;;5.96;95.48
10135;BME280;5107;48.850;8.924;2022-11-20T10:13:00;96397.22;;;5.82;94.20
10135;BME280;5107;48.850;8.924;2022-11-20T10:15:38;96395.06;;;5.77;94.83
10135;BME280;5107;48.850;8.924;2022-11-20T10:18:23;96404.97;;;5.73;95.80
10135;BME280;5107;48.850;8.924;2022-11-20T10:20:59;96402.41;;;5.64;93.90
10135;BME280;5107;48.850;8.924;2022-11-20T10:23:58;96402.69;;;5.61;93.61
10135;BME280;5107;48.850;8.924;2022-11-20T10:26:39;96400.09;;;5.61;94.86
10135;BME280;5107;48.850;8.924;2022-11-20T10:29:12;96387.03;;;5.61;95.50
10135;BME280;5107;48.850;8.924;2022-11-20T10:31:45;96398.91;;;5.55;95.63
10135;BME280;5107;48.850;8.924;2022-11-20T10:34:20;96395.31;;;5.56;95.96
10135;BME280;5107;48.850;8.924;2022-11-20T10:36:54;96400.41;;;5.58;96.50
10135;BME280;5107;48.850;8.924;2022-11-20T10:39:31;96396.09;;;5.66;96.52
10135;BME280;5107;48.850;8.924;2022-11-20T10:42:00;96390.81;;;5.76;96.44
10135;BME280;5107;48.850;8.924;2022-11-20T10:44:29;96391.72;;;5.85;96.10
10135;BME280;5107;48.850;8.924;2022-11-20T10:47:17;96389.03;;;5.94;95.42
10135;BME280;5107;48.850;8.924;2022-11-20T10:49:48;96377.19;;;6.00;96.11
10135;BME280;5107;48.850;8.924;2022-11-20T10:52:26;96391.56;;;6.04;95.78
10135;BME280;5107;48.850;8.924;2022-11-20T10:55:06;96390.53;;;5.97;94.05
10135;BME280;5107;48.850;8.924;2022-11-20T10:57:52;96387.56;;;5.92;93.71
10135;BME280;5107;48.850;8.924;2022-11-20T11:00:21;96378.75;;;5.93;93.26
10135;BME280;5107;48.850;8.924;2022-11-20T11:02:50;96386.66;;;6.01;93.59
10135;BME280;5107;48.850;8.924;2022-11-20T11:05:33;96387.03;;;6.06;93.79
10135;BME280;5107;48.850;8.924;2022-11-20T11:08:03;96375.97;;;6.12;93.38
10135;BME280;5107;48.850;8.924;2022-11-20T11:10:38;96370.81;;;6.20;92.41
10135;BME280;5107;48.850;8.924;2022-11-20T11:13:19;96363.84;;;6.46;92.10
10135;BME280;5107;48.850;8.924;2022-11-20T11:15:46;96369.56;;;7.02;88.92
10135;BME280;5107;48.850;8.924;2022-11-20T11:18:24;96352.06;;;7.36;87.06
10135;BME280;5107;48.850;8.924;2022-11-20T11:20:54;96349.13;;;7.47;87.22
10135;BME280;5107;48.850;8.924;2022-11-20T11:23:32;96350.13;;;7.12;86.67
10135;BME280;5107;48.850;8.924;2022-11-20T11:26:02;96338.47;;;6.99;86.51
10135;BME280;5107;48.850;8.924;2022-11-20T11:28:29;96346.66;;;7.04;86.46
10135;BME280;5107;48.850;8.924;2022-11-20T11:30:57;96335.19;;;7.39;84.57
10135;BME280;5107;48.850;8.924;2022-11-20T11:33:28;96333.97;;;7.83;82.18
10135;BME280;5107;48.850;8.924;2022-11-20T11:35:57;96326.63;;;8.27;81.21
10135;BME280;5107;48.850;8.924;2022-11-20T11:38:32;96326.94;;;8.57;80.32
10135;BME280;5107;48.850;8.924;2022-11-20T11:41:01;96318.06;;;8.74;78.85
10135;BME280;5107;48.850;8.924;2022-11-20T11:43:32;96305.34;;;9.02;79.40
10135;BME280;5107;48.850;8.924;2022-11-20T11:46:30;96310.06;;;9.06;76.72
10135;BME280;5107;48.850;8.924;2022-11-20T11:49:08;96308.75;;;9.10;75.49
10135;BME280;5107;48.850;8.924;2022-11-20T11:51:47;96301.03;;;9.09;74.16
10135;BME280;5107;48.850;8.924;2022-11-20T11:54:22;96299.47;;;8.92;73.96
10135;BME280;5107;48.850;8.924;2022-11-20T11:56:51;96287.31;;;8.99;76.15
10135;BME280;5107;48.850;8.924;2022-11-20T11:59:25;96291.91;;;8.97;72.39
10135;BME280;5107;48.850;8.924;2022-11-20T12:01:57;96293.28;;;8.85;71.92
10135;BME280;5107;48.850;8.924;2022-11-20T12:04:42;96295.44;;;8.73;72.19
10135;BME280;5107;48.850;8.924;2022-11-20T12:07:14;96296.91;;;8.75;71.59
10135;BME280;5107;48.850;8.924;2022-11-20T12:09:48;96297.97;;;8.97;71.78
10135;BME280;5107;48.850;8.924;2022-11-20T12:12:20;96294.31;;;9.06;71.57
10135;BME280;5107;48.850;8.924;2022-11-20T12:14:50;96288.28;;;8.98;69.37
10135;BME280;5107;48.850;8.924;2022-11-20T12:17:19;96290.16;;;8.81;69.33
10135;BME280;5107;48.850;8.924;2022-11-20T12:19:48;96293.75;;;8.80;69.90
10135;BME280;5107;48.850;8.924;2022-11-20T12:22:28;96286.09;;;8.79;68.96
10135;BME280;5107;48.850;8.924;2022-11-20T12:25:01;96289.97;;;8.91;70.54
10135;BME280;5107;48.850;8.924;2022-11-20T12:27:58;96282.75;;;9.24;69.86
10135;BME280;5107;48.850;8.924;2022-11-20T12:30:29;96282.38;;;8.96;68.71
10135;BME280;5107;48.850;8.924;2022-11-20T12:33:19;96281.25;;;9.29;68.90
10135;BME280;5107;48.850;8.924;2022-11-20T12:36:07;96282.34;;;8.65;68.32
10135;BME280;5107;48.850;8.924;2022-11-20T12:39:01;96285.63;;;8.67;68.36
10135;BME280;5107;48.850;8.924;2022-11-20T13:25:31;96274.84;;;8.21;69.15
10135;BME280;5107;48.850;8.924;2022-11-20T13:28:00;96263.91;;;8.34;67.83
10135;BME280;5107;48.850;8.924;2022-11-20T13:30:31;96258.09;;;8.63;67.99
10135;BME280;5107;48.850;8.924;2022-11-20T13:33:04;96263.75;;;8.83;65.63
10135;BME280;5107;48.850;8.924;2022-11-20T13:35:35;96266.97;;;8.62;66.33
10135;BME280;5107;48.850;8.924;2022-11-20T13:38:06;96269.00;;;8.11;66.93
10135;BME280;5107;48.850;8.924;2022-11-20T13:40:37;96259.50;;;7.70;68.85
10135;BME280;5107;48.850;8.924;2022-11-20T13:43:19;96260.63;;;7.51;70.82
10135;BME280;5107;48.850;8.924;2022-11-20T13:45:57;96258.81;;;7.27;71.42
10135;BME280;5107;48.850;8.924;2022-11-20T13:48:29;96266.44;;;7.12;71.96
10135;BME280;5107;48.850;8.924;2022-11-20T13:51:14;96276.03;;;6.96;74.66
10135;BME280;5107;48.850;8.924;2022-11-20T13:54:11;96263.03;;;6.78;76.96
10135;BME280;5107;48.850;8.924;2022-11-20T13:56:56;96262.72;;;6.73;76.41
10135;BME280;5107;48.850;8.924;2022-11-20T13:59:47;96261.22;;;6.70;77.51
10135;BME280;5107;48.850;8.924;2022-11-20T14:02:22;96254.19;;;6.71;78.30
10135;BME280;5107;48.850;8.924;2022-11-20T14:04:53;96246.69;;;6.68;78.65
10135;BME280;5107;48.850;8.924;2022-11-20T14:07:31;96255.50;;;6.67;79.44
10135;BME280;5107;48.850;8.924;2022-11-20T14:09:59;96259.09;;;6.66;79.20
10135;BME280;5107;48.850;8.924;2022-11-20T14:12:30;96257.97;;;6.68;79.08
10135;BME280;5107;48.850;8.924;2022-11-20T14:14:59;96251.28;;;6.74;79.07
10135;BME280;5107;48.850;8.924;2022-11-20T14:17:31;96251.97;;;6.84;76.13
10135;BME280;5107;48.850;8.924;2022-11-20T14:20:03;96254.09;;;6.89;77.55
10135;BME280;5107;48.850;8.924;2022-11-20T14:22:31;96248.88;;;6.89;77.72
10135;BME280;5107;48.850;8.924;2022-11-20T14:25:05;96242.97;;;6.86;76.94